Time;durP1;ratioP1;P1;durP2;ratioP2;P2;SDS_P1;SDS_P2;PMS_P1;PMS_P2;Temp;Humidity;BMP_temperature;BMP_pressure;BME280_temperature;BME280_humidity;BME280_pressure;Samples;Min_cycle;Max_cycle;Signal;HPM_P1;HPM_P2
2022/04/19 00:02:01;;;;;;;12.82;12.02;;;;;;;;;;5079451;28;20030;-54
2022/04/19 00:04:26;;;;;;;11.75;11.05;;;;;;;;;;5079104;28;20031;-51
2022/04/19 00:06:52;;;;;;;9.32;8.73;;;;;;;;;;5080589;28;20030;-51
2022/04/19 00:09:17;;;;;;;10.13;9.43;;;;;;;;;;5079409;28;20036;-54
2022/04/19 00:11:42;;;;;;;8.95;8.35;;;;;;;;;;5078115;28;20101;-52
2022/04/19 00:14:08;;;;;;;7.10;6.60;;;;;;;;;;5078366;28;20048;-50
2022/04/19 00:16:35;;;;;;;8.15;7.65;;;;;;;;;;5078967;28;20469;-52
2022/04/19 00:19:00;;;;;;;8.00;7.50;;;;;;;;;;5079920;28;20080;-44
2022/04/19 00:21:27;;;;;;;7.13;6.63;;;;;;;;;;5078987;28;20158;-47
2022/04/19 00:23:53;;;;;;;7.18;6.68;;;;;;;;;;5075879;28;20028;-45
2022/04/19 00:26:19;;;;;;;7.05;6.55;;;;;;;;;;5077518;28;20064;-45
2022/04/19 00:28:45;;;;;;;6.68;6.07;;;;;;;;;;5076937;28;21029;-44
2022/04/19 00:31:11;;;;;;;6.30;5.82;;;;;;;;;;5072453;28;20035;-44
2022/04/19 00:33:42;;;;;;;6.82;6.30;;;;;;;;;;5075430;28;20338;-44
2022/04/19 00:36:08;;;;;;;;;;;;;;;;;;5073359;28;20871;-44
2022/04/19 00:38:33;;;;;;;7.15;6.65;;;;;;;;;;5072810;28;19912;-44
2022/04/19 00:40:58;;;;;;;6.97;6.47;;;;;;;;;;5070411;28;20550;-45
2022/04/19 00:43:26;;;;;;;7.72;7.22;;;;;;;;;;5071467;28;20059;-45
2022/04/19 00:45:51;;;;;;;6.47;5.97;;;;;;;;;;5075050;28;20524;-45
2022/04/19 00:48:16;;;;;;;5.95;5.55;;;;;;;;;;5076106;28;20163;-44
2022/04/19 00:50:42;;;;;;;6.78;6.28;;;;;;;;;;5073917;28;20044;-44
2022/04/19 00:53:08;;;;;;;6.65;6.15;;;;;;;;;;5072968;28;20075;-46
2022/04/19 00:55:34;;;;;;;6.40;5.97;;;;;;;;;;5071613;28;20127;-44
2022/04/19 00:58:00;;;;;;;6.30;5.90;;;;;;;;;;5076074;28;20444;-44
2022/04/19 01:00:25;;;;;;;7.25;6.55;;;;;;;;;;5080276;28;20100;-45
2022/04/19 01:02:50;;;;;;;6.57;6.15;;;;;;;;;;5074025;28;20096;-44
2022/04/19 01:05:16;;;;;;;6.47;5.93;;;;;;;;;;5073761;28;20056;-46
2022/04/19 01:07:45;;;;;;;7.82;7.32;;;;;;;;;;5073610;28;20054;-45
2022/04/19 01:10:11;;;;;;;7.15;6.65;;;;;;;;;;5072420;28;20040;-44
2022/04/19 01:15:21;;;;;;;7.68;7.18;;;;;;;;;;5075060;28;20472;-46
2022/04/19 01:17:47;;;;;;;8.02;7.53;;;;;;;;;;5072748;28;20024;-45
2022/04/19 01:20:12;;;;;;;7.95;7.30;;;;;;;;;;5072894;28;20035;-45
2022/04/19 01:22:39;;;;;;;10.55;9.85;;;;;;;;;;5078508;28;20051;-46
2022/04/19 01:25:06;;;;;;;10.23;9.63;;;;;;;;;;5074902;28;20654;-44
2022/04/19 01:27:32;;;;;;;10.68;9.93;;;;;;;;;;5076486;28;20487;-45
2022/04/19 01:30:02;;;;;;;11.68;10.77;;;;;;;;;;5074971;28;20127;-45
2022/04/19 01:32:28;;;;;;;10.18;9.57;;;;;;;;;;5073593;28;20119;-45
2022/04/19 01:35:12;;;;;;;11.48;10.77;;;;;;;;;;5072362;28;20775;-45
2022/04/19 01:37:48;;;;;;;11.57;10.88;;;;;;;;;;5070932;28;20032;-46
2022/04/19 01:40:17;;;;;;;13.98;13.13;;;;;;;;;;5074434;28;20051;-45
2022/04/19 01:42:49;;;;;;;15.02;14.13;;;;;;;;;;5073117;28;20044;-47
2022/04/19 01:45:17;;;;;;;13.63;12.73;;;;;;;;;;5071366;28;20075;-45
2022/04/19 01:47:45;;;;;;;13.52;12.73;;;;;;;;;;5071812;28;20081;-45
2022/04/19 01:50:15;;;;;;;12.95;12.15;;;;;;;;;;5071361;28;20040;-46
2022/04/19 01:52:42;;;;;;;13.95;13.07;;;;;;;;;;5063198;28;20114;-46
2022/04/19 01:55:09;;;;;;;13.98;13.15;;;;;;;;;;5072551;28;20040;-45
2022/04/19 01:57:35;;;;;;;13.02;12.25;;;;;;;;;;5069178;28;20016;-45
2022/04/19 02:00:05;;;;;;;12.68;11.93;;;;;;;;;;5071923;28;20098;-45
2022/04/19 02:02:30;;;;;;;13.02;12.27;;;;;;;;;;5070176;28;20040;-45
2022/04/19 02:04:56;;;;;;;12.80;12.05;;;;;;;;;;5072681;28;20130;-45
2022/04/19 02:07:21;;;;;;;11.50;10.80;;;;;;;;;;5071524;28;20028;-46
2022/04/19 02:09:47;;;;;;;12.25;11.55;;;;;;;;;;5072906;28;20028;-44
2022/04/19 02:12:13;;;;;;;11.93;11.20;;;;;;;;;;5072537;28;20032;-45
2022/04/19 02:14:41;;;;;;;11.20;10.50;;;;;;;;;;5071768;28;20115;-45
2022/04/19 02:17:09;;;;;;;10.88;10.18;;;;;;;;;;5072439;28;20028;-46
2022/04/19 02:19:37;;;;;;;11.00;10.30;;;;;;;;;;5071962;28;20040;-48
2022/04/19 02:22:06;;;;;;;11.43;10.73;;;;;;;;;;5072943;28;20047;-45
2022/04/19 02:24:33;;;;;;;12.13;11.35;;;;;;;;;;5071958;28;20782;-45
2022/04/19 02:26:59;;;;;;;10.27;9.57;;;;;;;;;;5073065;28;20133;-46
2022/04/19 02:29:25;;;;;;;12.10;11.38;;;;;;;;;;5073293;28;20396;-45
2022/04/19 02:31:51;;;;;;;13.70;12.85;;;;;;;;;;5071917;28;20060;-47
2022/04/19 02:34:18;;;;;;;12.43;11.73;;;;;;;;;;5069369;28;20043;-46
2022/04/19 02:36:44;;;;;;;11.23;10.52;;;;;;;;;;5069147;28;20043;-46
2022/04/19 02:39:10;;;;;;;10.18;9.57;;;;;;;;;;5070237;28;20139;-44
2022/04/19 02:41:36;;;;;;;9.27;8.68;;;;;;;;;;5069481;28;20060;-47
2022/04/19 02:44:03;;;;;;;9.90;9.23;;;;;;;;;;5070939;28;20028;-45
2022/04/19 02:46:29;;;;;;;12.27;11.57;;;;;;;;;;5072635;28;20040;-45
2022/04/19 02:48:57;;;;;;;9.55;8.85;;;;;;;;;;5072120;28;20027;-45
2022/04/19 02:51:22;;;;;;;11.95;11.25;;;;;;;;;;5071274;28;20032;-44
2022/04/19 02:53:48;;;;;;;9.38;8.77;;;;;;;;;;5070966;28;20086;-49
2022/04/19 02:56:13;;;;;;;14.02;13.23;;;;;;;;;;5069521;28;20036;-45
2022/04/19 02:58:39;;;;;;;10.20;9.57;;;;;;;;;;5071858;28;20367;-45
2022/04/19 03:01:04;;;;;;;11.60;10.90;;;;;;;;;;5071423;28;20044;-46
2022/04/19 03:03:29;;;;;;;10.40;9.77;;;;;;;;;;5072549;28;20057;-45
2022/04/19 03:05:56;;;;;;;13.35;12.55;;;;;;;;;;5071048;28;20380;-45
2022/04/19 03:08:22;;;;;;;14.55;13.65;;;;;;;;;;5071026;28;20067;-45
2022/04/19 03:10:49;;;;;;;12.02;11.32;;;;;;;;;;5073142;28;20056;-45
2022/04/19 03:13:16;;;;;;;13.05;12.25;;;;;;;;;;5071922;28;20043;-46
2022/04/19 03:15:42;;;;;;;11.93;11.23;;;;;;;;;;5069675;28;20029;-44
2022/04/19 03:18:07;;;;;;;11.25;10.55;;;;;;;;;;5070493;28;20566;-45
2022/04/19 03:20:33;;;;;;;9.27;8.68;;;;;;;;;;5072605;28;20429;-45
2022/04/19 03:28:26;;;;;;;8.75;8.15;;;;;;;;;;5072735;28;20072;-46
2022/04/19 03:30:52;;;;;;;8.10;7.60;;;;;;;;;;5073040;28;20119;-46
2022/04/19 03:33:17;;;;;;;7.00;6.50;;;;;;;;;;5075236;28;20119;-46
2022/04/19 03:35:43;;;;;;;8.43;7.82;;;;;;;;;;5075801;28;20021;-47
2022/04/19 03:38:09;;;;;;;7.45;6.95;;;;;;;;;;5073778;28;20020;-45
2022/04/19 03:40:35;;;;;;;10.13;9.52;;;;;;;;;;5072550;28;20038;-44
2022/04/19 03:43:02;;;;;;;8.35;7.82;;;;;;;;;;5075678;28;20626;-47
2022/04/19 03:45:28;;;;;;;8.88;8.27;;;;;;;;;;5080657;28;20043;-44
2022/04/19 03:47:54;;;;;;;7.05;6.55;;;;;;;;;;5074706;28;20036;-47
2022/04/19 03:50:19;;;;;;;8.95;8.35;;;;;;;;;;5073050;28;20044;-50
2022/04/19 03:52:44;;;;;;;7.72;7.22;;;;;;;;;;5071207;28;20061;-45
2022/04/19 03:55:10;;;;;;;7.10;6.60;;;;;;;;;;5072637;28;20036;-45
2022/04/19 03:57:36;;;;;;;6.05;5.65;;;;;;;;;;5074486;28;20039;-45
2022/04/19 04:00:02;;;;;;;6.10;5.70;;;;;;;;;;5075621;28;20106;-44
2022/04/19 04:02:27;;;;;;;5.70;5.20;;;;;;;;;;5075862;28;20036;-45
2022/04/19 04:04:53;;;;;;;5.93;5.53;;;;;;;;;;5073160;28;20744;-45
2022/04/19 04:07:18;;;;;;;5.80;5.35;;;;;;;;;;5076208;28;20123;-45
2022/04/19 04:09:44;;;;;;;6.15;5.72;;;;;;;;;;5075216;28;20033;-44
2022/04/19 04:12:12;;;;;;;8.25;7.68;;;;;;;;;;5072979;28;20028;-45
2022/04/19 04:14:39;;;;;;;6.82;6.30;;;;;;;;;;5072629;28;20036;-44
2022/04/19 04:17:04;;;;;;;7.05;6.55;;;;;;;;;;5074984;28;20052;-48
2022/04/19 04:19:29;;;;;;;6.35;5.85;;;;;;;;;;5075094;28;20064;-46
2022/04/19 04:21:55;;;;;;;5.72;5.32;;;;;;;;;;5076066;28;20020;-45
2022/04/19 04:24:21;;;;;;;5.82;5.40;;;;;;;;;;5071996;28;20128;-45
2022/04/19 04:26:46;;;;;;;5.95;5.45;;;;;;;;;;5074091;28;20032;-46
2022/04/19 04:29:12;;;;;;;5.68;5.28;;;;;;;;;;5072705;28;20046;-44
2022/04/19 04:31:38;;;;;;;6.97;6.47;;;;;;;;;;5076480;28;20036;-47
2022/04/19 04:34:06;;;;;;;7.20;6.70;;;;;;;;;;5074125;28;20032;-45
2022/04/19 04:36:32;;;;;;;5.75;5.35;;;;;;;;;;5073953;28;20032;-44
2022/04/19 04:38:57;;;;;;;6.03;5.60;;;;;;;;;;5074378;28;20113;-46
2022/04/19 04:41:23;;;;;;;6.82;6.32;;;;;;;;;;5073011;28;20048;-46
2022/04/19 04:43:48;;;;;;;6.20;5.80;;;;;;;;;;5073521;28;20497;-47
2022/04/19 04:51:42;;;;;;;6.97;6.47;;;;;;;;;;5074574;28;20453;-45
2022/04/19 04:54:07;;;;;;;7.32;6.82;;;;;;;;;;5076357;28;20073;-45
2022/04/19 04:56:33;;;;;;;6.80;6.30;;;;;;;;;;5073372;28;20466;-45
2022/04/19 04:58:59;;;;;;;8.93;8.25;;;;;;;;;;5073671;28;20063;-46
2022/04/19 05:01:24;;;;;;;7.95;7.38;;;;;;;;;;5072219;28;20072;-45
2022/04/19 05:03:50;;;;;;;8.68;8.07;;;;;;;;;;5073269;28;20040;-46
2022/04/19 05:06:15;;;;;;;8.13;7.53;;;;;;;;;;5076227;28;20062;-45
2022/04/19 05:08:40;;;;;;;7.50;6.95;;;;;;;;;;5075956;28;20032;-44
2022/04/19 05:11:06;;;;;;;7.43;6.93;;;;;;;;;;5076886;28;20032;-44
2022/04/19 05:13:31;;;;;;;7.53;7.03;;;;;;;;;;5076884;28;20048;-44
2022/04/19 05:15:58;;;;;;;8.32;7.72;;;;;;;;;;5070093;28;20073;-45
2022/04/19 05:18:27;;;;;;;7.03;6.53;;;;;;;;;;5074786;28;20036;-46
2022/04/19 05:20:53;;;;;;;7.85;7.35;;;;;;;;;;5073798;28;20040;-48
2022/04/19 05:23:20;;;;;;;8.70;8.10;;;;;;;;;;5073073;28;20040;-44
2022/04/19 05:25:46;;;;;;;7.38;6.65;;;;;;;;;;5073386;28;20128;-45
2022/04/19 05:28:12;;;;;;;6.22;5.82;;;;;;;;;;5073391;28;20099;-45
2022/04/19 05:30:37;;;;;;;6.95;6.45;;;;;;;;;;5071793;28;20242;-47
2022/04/19 05:33:03;;;;;;;6.15;5.75;;;;;;;;;;5073586;28;20035;-45
2022/04/19 05:35:28;;;;;;;6.28;5.88;;;;;;;;;;5074475;28;20047;-47
2022/04/19 05:37:55;;;;;;;6.57;6.15;;;;;;;;;;5071439;28;20028;-45
2022/04/19 05:40:21;;;;;;;4.93;4.53;;;;;;;;;;5071917;28;20075;-44
2022/04/19 05:42:47;;;;;;;5.82;5.43;;;;;;;;;;5059146;28;20048;-44
2022/04/19 05:45:12;;;;;;;6.18;5.75;;;;;;;;;;5073982;28;20078;-46
2022/04/19 05:47:38;;;;;;;5.95;5.45;;;;;;;;;;5071857;28;20445;-49
2022/04/19 05:50:03;;;;;;;5.45;5.03;;;;;;;;;;5073364;28;20024;-47
2022/04/19 05:52:29;;;;;;;5.68;5.28;;;;;;;;;;5072657;28;20040;-47
2022/04/19 05:54:54;;;;;;;5.03;4.63;;;;;;;;;;5072575;28;20164;-46
2022/04/19 05:57:19;;;;;;;7.95;7.45;;;;;;;;;;5073008;28;20085;-45
2022/04/19 05:59:45;;;;;;;10.15;9.50;;;;;;;;;;5072337;28;20036;-45
2022/04/19 06:04:54;;;;;;;10.88;10.07;;;;;;;;;;5070165;28;20032;-45
2022/04/19 06:07:23;;;;;;;9.35;8.75;;;;;;;;;;5078839;28;20082;-44
2022/04/19 06:09:49;;;;;;;10.02;9.43;;;;;;;;;;5073453;28;20377;-44
2022/04/19 06:12:15;;;;;;;9.27;8.68;;;;;;;;;;5072446;28;20099;-44
2022/04/19 06:14:40;;;;;;;7.20;6.70;;;;;;;;;;5069907;28;20417;-45
2022/04/19 06:17:06;;;;;;;8.20;7.70;;;;;;;;;;5070678;28;20042;-44
2022/04/19 06:19:31;;;;;;;9.00;8.40;;;;;;;;;;5073604;28;20125;-45
2022/04/19 06:21:57;;;;;;;9.55;8.95;;;;;;;;;;5072460;28;20047;-45
2022/04/19 06:24:23;;;;;;;9.23;8.63;;;;;;;;;;5073079;28;20036;-44
2022/04/19 06:26:48;;;;;;;8.82;8.23;;;;;;;;;;5067593;28;20473;-46
2022/04/19 06:29:14;;;;;;;9.40;8.80;;;;;;;;;;5070882;28;20358;-44
2022/04/19 06:31:46;;;;;;;7.88;7.38;;;;;;;;;;5070770;28;20130;-45
2022/04/19 06:34:12;;;;;;;6.75;6.25;;;;;;;;;;5075609;28;20020;-44
2022/04/19 06:36:37;;;;;;;7.75;7.15;;;;;;;;;;5073623;28;20062;-45
2022/04/19 06:39:03;;;;;;;6.47;6.03;;;;;;;;;;5073021;28;20020;-45
2022/04/19 06:41:28;;;;;;;6.18;5.78;;;;;;;;;;5072535;28;20054;-45
2022/04/19 06:43:57;;;;;;;5.28;4.88;;;;;;;;;;5071806;28;20070;-44
2022/04/19 06:46:25;;;;;;;5.53;5.13;;;;;;;;;;5069688;28;20118;-45
2022/04/19 06:48:53;;;;;;;5.68;5.28;;;;;;;;;;5069169;28;20032;-46
2022/04/19 06:51:18;;;;;;;5.05;4.65;;;;;;;;;;5077766;28;20131;-45
2022/04/19 06:53:43;;;;;;;4.68;4.28;;;;;;;;;;5076266;28;20501;-45
2022/04/19 06:56:10;;;;;;;4.63;4.22;;;;;;;;;;5076793;28;20484;-44
2022/04/19 06:58:35;;;;;;;5.45;5.05;;;;;;;;;;5073766;28;20024;-45
2022/04/19 07:01:00;;;;;;;5.32;4.88;;;;;;;;;;5075445;28;20055;-44
2022/04/19 07:03:26;;;;;;;5.93;5.43;;;;;;;;;;5077014;28;20032;-45
2022/04/19 07:05:51;;;;;;;5.57;5.18;;;;;;;;;;5073777;28;20048;-44
2022/04/19 07:08:17;;;;;;;4.90;4.50;;;;;;;;;;5076798;28;20032;-45
2022/04/19 07:10:43;;;;;;;4.55;4.15;;;;;;;;;;5079499;28;20466;-45
2022/04/19 07:13:10;;;;;;;6.47;4.68;;;;;;;;;;5074806;28;20040;-44
2022/04/19 07:15:35;;;;;;;5.30;4.90;;;;;;;;;;5073913;28;20117;-45
2022/04/19 07:18:01;;;;;;;5.50;5.10;;;;;;;;;;5075897;28;20032;-45
2022/04/19 07:28:46;;;;;;;8.00;7.50;;;;;;;;;;5071322;28;20105;-46
2022/04/19 07:31:13;;;;;;;11.13;10.43;;;;;;;;;;5069404;28;20032;-46
2022/04/19 07:33:39;;;;;;;14.52;13.65;;;;;;;;;;5086289;28;20101;-44
2022/04/19 07:36:06;;;;;;;15.25;14.35;;;;;;;;;;5070058;28;20722;-46
2022/04/19 07:38:31;;;;;;;23.30;22.00;;;;;;;;;;5068697;28;20028;-45
2022/04/19 07:40:57;;;;;;;35.72;33.90;;;;;;;;;;5072210;28;20047;-50
2022/04/19 07:43:23;;;;;;;46.28;43.88;;;;;;;;;;5072252;28;20032;-50
2022/04/19 07:45:48;;;;;;;46.45;43.95;;;;;;;;;;5072218;28;20111;-54
2022/04/19 07:48:15;;;;;;;51.17;48.60;;;;;;;;;;5074024;28;20043;-51
2022/04/19 07:50:40;;;;;;;55.53;52.72;;;;;;;;;;5072890;28;20050;-54
2022/04/19 07:53:06;;;;;;;51.80;48.85;;;;;;;;;;5071283;28;20036;-53
2022/04/19 07:55:31;;;;;;;55.25;52.13;;;;;;;;;;5070699;28;20047;-51
2022/04/19 07:57:57;;;;;;;43.63;41.40;;;;;;;;;;5077635;28;20028;-51
2022/04/19 08:00:27;;;;;;;14.15;13.15;;;;;;;;;;5075084;28;20086;-51
2022/04/19 08:02:52;;;;;;;51.87;49.23;;;;;;;;;;5072200;28;20047;-52
2022/04/19 08:05:18;;;;;;;10.68;9.98;;;;;;;;;;5071500;28;20031;-54
2022/04/19 08:07:43;;;;;;;14.98;14.07;;;;;;;;;;5070033;28;20229;-52
2022/04/19 08:10:09;;;;;;;15.57;14.65;;;;;;;;;;5070506;28;20099;-50
2022/04/19 08:12:34;;;;;;;14.45;13.38;;;;;;;;;;5069750;28;20481;-54
2022/04/19 08:14:59;;;;;;;7.35;6.82;;;;;;;;;;5070602;28;20031;-51
2022/04/19 08:17:25;;;;;;;9.18;8.50;;;;;;;;;;5071082;28;20032;-55
2022/04/19 08:19:50;;;;;;;8.73;8.13;;;;;;;;;;5073307;28;20037;-51
2022/04/19 08:22:16;;;;;;;8.80;8.20;;;;;;;;;;5072170;28;20043;-50
2022/04/19 08:24:42;;;;;;;10.15;9.48;;;;;;;;;;5072856;28;20047;-52
2022/04/19 08:27:07;;;;;;;9.23;8.63;;;;;;;;;;5073005;28;20877;-54
2022/04/19 08:29:33;;;;;;;9.82;9.23;;;;;;;;;;5072904;28;20092;-52
2022/04/19 08:31:58;;;;;;;12.20;11.30;;;;;;;;;;5069705;28;20397;-57
2022/04/19 08:34:23;;;;;;;14.07;13.23;;;;;;;;;;5070477;28;20648;-49
2022/04/19 08:36:49;;;;;;;14.75;13.85;;;;;;;;;;5073823;28;20119;-50
2022/04/19 08:39:14;;;;;;;13.55;12.75;;;;;;;;;;5074417;28;20032;-49
2022/04/19 08:41:41;;;;;;;13.35;12.55;;;;;;;;;;5075167;28;20105;-52
2022/04/19 08:44:07;;;;;;;16.45;15.40;;;;;;;;;;5073066;28;20032;-54
2022/04/19 08:46:33;;;;;;;15.50;14.60;;;;;;;;;;5072658;28;20431;-51
2022/04/19 08:49:05;;;;;;;16.15;15.15;;;;;;;;;;5070412;28;20075;-51
2022/04/19 08:51:35;;;;;;;12.50;11.80;;;;;;;;;;5072290;28;20036;-53
2022/04/19 08:59:30;;;;;;;12.15;11.25;;;;;;;;;;5073941;28;20139;-53
2022/04/19 09:01:57;;;;;;;11.48;10.68;;;;;;;;;;5071281;28;20035;-52
2022/04/19 09:04:23;;;;;;;10.52;9.45;;;;;;;;;;5070596;28;20376;-51
2022/04/19 09:06:54;;;;;;;8.93;8.32;;;;;;;;;;5074216;28;20032;-51
2022/04/19 09:09:34;;;;;;;9.63;8.85;;;;;;;;;;5071830;28;20802;-52
2022/04/19 09:12:08;;;;;;;8.90;8.23;;;;;;;;;;5076890;28;20044;-53
2022/04/19 09:14:34;;;;;;;7.97;7.38;;;;;;;;;;5073109;28;20044;-53
2022/04/19 09:17:05;;;;;;;9.05;8.45;;;;;;;;;;5070548;28;20151;-50
2022/04/19 09:19:30;;;;;;;9.52;8.77;;;;;;;;;;5071340;28;20040;-54
2022/04/19 09:21:57;;;;;;;8.02;7.43;;;;;;;;;;5073060;28;20051;-52
2022/04/19 09:24:23;;;;;;;8.70;8.10;;;;;;;;;;5068507;28;20107;-50
2022/04/19 09:26:49;;;;;;;8.40;7.70;;;;;;;;;;5069266;28;20123;-50
2022/04/19 09:29:22;;;;;;;9.30;8.50;;;;;;;;;;5070694;28;20044;-53
2022/04/19 09:31:58;;;;;;;8.38;7.78;;;;;;;;;;5070685;28;20108;-53
2022/04/19 09:34:30;;;;;;;9.15;8.55;;;;;;;;;;5069419;28;20473;-50
2022/04/19 09:37:13;;;;;;;8.57;7.93;;;;;;;;;;5070769;28;20040;-49
2022/04/19 09:39:44;;;;;;;8.40;7.82;;;;;;;;;;5073288;28;20048;-53
2022/04/19 09:42:14;;;;;;;;;;;;;;;;;;5072509;28;20032;-54
2022/04/19 09:44:41;;;;;;;26.80;25.13;;;;;;;;;;5069775;28;19920;-53
2022/04/19 09:47:10;;;;;;;18.10;16.90;;;;;;;;;;5071170;28;20024;-54
2022/04/19 09:49:48;;;;;;;15.57;14.52;;;;;;;;;;5072528;28;20036;-53
2022/04/19 09:52:23;;;;;;;11.80;10.95;;;;;;;;;;5070830;28;20031;-52
2022/04/19 09:55:04;;;;;;;12.68;11.88;;;;;;;;;;5072177;28;20234;-52
2022/04/19 09:57:31;;;;;;;13.52;12.55;;;;;;;;;;5074528;28;20093;-54
2022/04/19 09:59:59;;;;;;;19.85;18.75;;;;;;;;;;5071531;28;20548;-54
2022/04/19 10:08:11;;;;;;;23.20;21.83;;;;;;;;;;5072286;28;20488;-52
2022/04/19 10:10:48;;;;;;;25.15;23.83;;;;;;;;;;5074719;28;20089;-51
2022/04/19 10:13:17;;;;;;;20.25;19.05;;;;;;;;;;5072710;28;20039;-52
2022/04/19 10:15:42;;;;;;;25.00;23.60;;;;;;;;;;5072906;28;20106;-49
2022/04/19 10:18:08;;;;;;;20.70;19.50;;;;;;;;;;5072728;28;20028;-50
2022/04/19 10:20:37;;;;;;;22.85;21.35;;;;;;;;;;5070796;28;20119;-52
2022/04/19 10:23:05;;;;;;;20.98;19.77;;;;;;;;;;5071675;28;20472;-50
2022/04/19 10:25:36;;;;;;;22.75;21.50;;;;;;;;;;5065649;28;20024;-49
2022/04/19 10:28:05;;;;;;;21.48;20.02;;;;;;;;;;5070515;28;20374;-53
2022/04/19 10:30:33;;;;;;;17.95;16.88;;;;;;;;;;5071154;28;20040;-51
2022/04/19 10:33:00;;;;;;;19.80;18.52;;;;;;;;;;5070143;28;20602;-54
2022/04/19 10:35:25;;;;;;;23.95;22.65;;;;;;;;;;5068267;28;20092;-48
2022/04/19 10:38:19;;;;;;;22.70;21.40;;;;;;;;;;5074450;28;20412;-50
2022/04/19 10:40:51;;;;;;;31.95;30.15;;;;;;;;;;5073535;28;20055;-51
2022/04/19 10:43:17;;;;;;;18.48;17.38;;;;;;;;;;5070474;28;20111;-53
2022/04/19 10:45:42;;;;;;;15.75;14.85;;;;;;;;;;5069638;28;20611;-54
2022/04/19 10:48:08;;;;;;;11.98;11.18;;;;;;;;;;5071961;28;20025;-49
2022/04/19 10:50:44;;;;;;;14.57;13.68;;;;;;;;;;5071437;28;20024;-49
2022/04/19 10:53:10;;;;;;;11.60;10.88;;;;;;;;;;5071669;28;20029;-51
2022/04/19 10:56:02;;;;;;;13.82;13.02;;;;;;;;;;5079459;28;20120;-51
2022/04/19 10:58:41;;;;;;;11.48;10.77;;;;;;;;;;5067586;28;20055;-48
2022/04/19 11:01:30;;;;;;;13.32;12.30;;;;;;;;;;5070805;28;20524;-53
2022/04/19 11:03:56;;;;;;;12.50;11.20;;;;;;;;;;5067806;28;20131;-50
2022/04/19 11:06:31;;;;;;;12.07;11.35;;;;;;;;;;5070031;28;20116;-53
2022/04/19 11:09:08;;;;;;;9.98;9.20;;;;;;;;;;5069695;28;20033;-52
2022/04/19 11:11:45;;;;;;;11.80;11.00;;;;;;;;;;5071935;28;20060;-50
2022/04/19 11:14:21;;;;;;;18.75;17.65;;;;;;;;;;5072153;28;20035;-51
2022/04/19 11:16:53;;;;;;;15.95;14.98;;;;;;;;;;5071640;28;20032;-49
2022/04/19 11:19:25;;;;;;;35.05;32.95;;;;;;;;;;5069821;28;20079;-50
2022/04/19 11:21:56;;;;;;;21.00;19.83;;;;;;;;;;5068779;28;20035;-51
2022/04/19 11:24:59;;;;;;;13.20;12.40;;;;;;;;;;5069454;28;20036;-50
2022/04/19 11:27:54;;;;;;;12.93;12.13;;;;;;;;;;5068617;28;20358;-50
2022/04/19 11:30:20;;;;;;;17.25;16.13;;;;;;;;;;5068929;28;20484;-50
2022/04/19 11:32:50;;;;;;;28.67;27.08;;;;;;;;;;5067965;28;20054;-50
2022/04/19 11:35:16;;;;;;;26.70;25.20;;;;;;;;;;5072169;28;20046;-53
2022/04/19 11:37:43;;;;;;;37.03;35.08;;;;;;;;;;5070169;28;20041;-51
2022/04/19 11:48:51;;;;;;;46.78;44.35;;;;;;;;;;5068284;28;20047;-52
2022/04/19 11:51:20;;;;;;;28.42;26.83;;;;;;;;;;5075097;28;20648;-54
2022/04/19 11:53:45;;;;;;;58.53;55.47;;;;;;;;;;5074110;28;20514;-53
2022/04/19 11:56:11;;;;;;;65.18;61.90;;;;;;;;;;5077096;28;20032;-50
2022/04/19 11:58:41;;;;;;;52.15;49.42;;;;;;;;;;5075507;28;20719;-51
2022/04/19 12:01:09;;;;;;;47.53;44.92;;;;;;;;;;5075203;28;20032;-50
2022/04/19 12:03:36;;;;;;;47.15;44.75;;;;;;;;;;5074121;28;20377;-49
2022/04/19 12:06:08;;;;;;;39.13;37.10;;;;;;;;;;5076522;28;20029;-52
2022/04/19 12:08:39;;;;;;;69.30;65.80;;;;;;;;;;5072465;28;20056;-51
2022/04/19 12:11:08;;;;;;;61.10;58.08;;;;;;;;;;5075309;28;20035;-49
2022/04/19 12:13:37;;;;;;;69.57;66.07;;;;;;;;;;5073145;28;20036;-53
2022/04/19 12:16:07;;;;;;;73.53;69.80;;;;;;;;;;5073163;28;21500;-49
2022/04/19 12:18:38;;;;;;;74.30;70.57;;;;;;;;;;5072307;28;20750;-54
2022/04/19 12:21:05;;;;;;;71.53;67.95;;;;;;;;;;5072846;28;20369;-50
2022/04/19 12:23:31;;;;;;;74.47;70.30;;;;;;;;;;5073291;28;20024;-50
2022/04/19 12:26:07;;;;;;;28.45;26.90;;;;;;;;;;5075162;28;20495;-50
2022/04/19 12:28:47;;;;;;;51.60;48.97;;;;;;;;;;5070804;28;20063;-53
2022/04/19 12:31:29;;;;;;;35.78;33.95;;;;;;;;;;5075263;28;20039;-54
2022/04/19 12:33:54;;;;;;;85.97;81.70;;;;;;;;;;5071683;28;20101;-52
2022/04/19 12:36:22;;;;;;;95.90;91.15;;;;;;;;;;5078075;28;20032;-54
2022/04/19 12:38:57;;;;;;;74.97;71.07;;;;;;;;;;5071835;28;20202;-54
2022/04/19 12:41:33;;;;;;;102.47;97.28;;;;;;;;;;5072406;28;20090;-53
2022/04/19 12:44:01;;;;;;;91.47;86.82;;;;;;;;;;5070778;28;20328;-55
2022/04/19 12:46:27;;;;;;;102.00;96.93;;;;;;;;;;5069092;28;20039;-54
2022/04/19 12:48:53;;;;;;;102.00;96.97;;;;;;;;;;5069749;28;20037;-52
2022/04/19 12:51:25;;;;;;;67.78;64.40;;;;;;;;;;5073838;28;20042;-54
2022/04/19 12:54:08;;;;;;;44.35;42.08;;;;;;;;;;5072215;28;20461;-54
2022/04/19 12:56:34;;;;;;;85.85;81.57;;;;;;;;;;5072958;28;20020;-54
2022/04/19 12:59:00;;;;;;;105.93;100.63;;;;;;;;;;5071459;28;20036;-51
2022/04/19 13:01:25;;;;;;;115.63;109.90;;;;;;;;;;5070741;28;20036;-54
2022/04/19 13:03:51;;;;;;;117.60;111.80;;;;;;;;;;5072006;28;20089;-51
2022/04/19 13:14:28;;;;;;;37.50;35.50;;;;;;;;;;5071666;28;20063;-53
2022/04/19 13:16:54;;;;;;;100.43;95.47;;;;;;;;;;5071545;28;20032;-54
2022/04/19 13:19:20;;;;;;;100.28;95.30;;;;;;;;;;5071542;28;20056;-55
2022/04/19 13:21:45;;;;;;;83.75;79.57;;;;;;;;;;5075265;28;20060;-51
2022/04/19 13:24:10;;;;;;;103.55;98.45;;;;;;;;;;5072937;28;20059;-51
2022/04/19 13:26:36;;;;;;;103.82;98.72;;;;;;;;;;5072204;28;20435;-51
2022/04/19 13:29:02;;;;;;;71.15;67.60;;;;;;;;;;5069495;28;21222;-56
2022/04/19 13:31:27;;;;;;;118.93;113.03;;;;;;;;;;5074757;28;20035;-53
2022/04/19 13:33:53;;;;;;;100.68;95.68;;;;;;;;;;5070989;28;20058;-53
2022/04/19 13:36:18;;;;;;;112.53;107.00;;;;;;;;;;5072941;28;20072;-52
2022/04/19 13:38:44;;;;;;;92.95;88.35;;;;;;;;;;5068807;28;20563;-51
2022/04/19 13:41:10;;;;;;;84.30;80.15;;;;;;;;;;5072002;28;20082;-53
2022/04/19 13:43:37;;;;;;;91.68;87.15;;;;;;;;;;5069624;28;20466;-55
2022/04/19 13:46:03;;;;;;;86.20;81.95;;;;;;;;;;5072306;28;20043;-54
2022/04/19 13:48:29;;;;;;;87.35;83.00;;;;;;;;;;5071163;28;20032;-54
2022/04/19 13:50:55;;;;;;;118.40;112.55;;;;;;;;;;5073433;28;20032;-51
2022/04/19 13:53:20;;;;;;;103.68;98.60;;;;;;;;;;5073652;28;20118;-51
2022/04/19 13:55:45;;;;;;;105.85;100.63;;;;;;;;;;5071211;28;20361;-54
2022/04/19 13:58:11;;;;;;;98.50;93.68;;;;;;;;;;5072623;28;20081;-52
2022/04/19 14:00:36;;;;;;;95.85;91.07;;;;;;;;;;5072419;28;20055;-47
2022/04/19 14:03:02;;;;;;;70.57;67.05;;;;;;;;;;5070797;28;20043;-46
2022/04/19 14:05:28;;;;;;;85.68;81.47;;;;;;;;;;5074668;28;20123;-47
2022/04/19 14:07:53;;;;;;;55.63;52.83;;;;;;;;;;5072843;28;20054;-44
2022/04/19 14:10:18;;;;;;;80.45;76.47;;;;;;;;;;5073637;28;20028;-46
2022/04/19 14:12:44;;;;;;;94.13;89.45;;;;;;;;;;5072630;28;20063;-45
2022/04/19 14:15:10;;;;;;;123.13;117.10;;;;;;;;;;5069192;28;20043;-46
2022/04/19 14:17:35;;;;;;;87.95;83.57;;;;;;;;;;5071017;28;20509;-45
2022/04/19 14:20:01;;;;;;;85.80;81.57;;;;;;;;;;5070765;28;20494;-44
2022/04/19 14:22:26;;;;;;;125.88;119.65;;;;;;;;;;5073746;28;20040;-53
2022/04/19 14:24:54;;;;;;;126.72;120.53;;;;;;;;;;5068998;28;20146;-53
2022/04/19 14:27:19;;;;;;;111.18;105.68;;;;;;;;;;5068744;28;20355;-52
2022/04/19 14:35:13;;;;;;;111.75;106.28;;;;;;;;;;5070845;28;20112;-49
2022/04/19 14:37:39;;;;;;;117.72;111.95;;;;;;;;;;5073061;28;20123;-50
2022/04/19 14:40:05;;;;;;;97.85;93.03;;;;;;;;;;5070593;28;20020;-51
2022/04/19 14:42:30;;;;;;;110.85;105.20;;;;;;;;;;5074056;28;20580;-52
2022/04/19 14:44:56;;;;;;;113.97;108.35;;;;;;;;;;5072026;28;20032;-53
2022/04/19 14:47:21;;;;;;;69.10;65.65;;;;;;;;;;5072285;28;20035;-53
2022/04/19 14:49:47;;;;;;;65.60;62.33;;;;;;;;;;5071820;28;20040;-51
2022/04/19 14:52:18;;;;;;;104.25;99.10;;;;;;;;;;5069097;28;20634;-54
2022/04/19 14:54:48;;;;;;;97.75;92.93;;;;;;;;;;5070858;28;20043;-54
2022/04/19 14:57:15;;;;;;;95.60;90.88;;;;;;;;;;5068937;28;20040;-53
2022/04/19 14:59:42;;;;;;;109.03;103.68;;;;;;;;;;5066762;28;20134;-52
2022/04/19 15:02:08;;;;;;;88.93;84.55;;;;;;;;;;5071658;28;20036;-53
2022/04/19 15:04:34;;;;;;;105.50;100.28;;;;;;;;;;5071898;28;20056;-54
2022/04/19 15:06:59;;;;;;;109.85;104.43;;;;;;;;;;5072645;28;20469;-53
2022/04/19 15:09:25;;;;;;;74.68;70.82;;;;;;;;;;5071435;28;20028;-52
2022/04/19 15:11:56;;;;;;;115.15;109.50;;;;;;;;;;5071184;28;20509;-53
2022/04/19 15:14:23;;;;;;;109.55;104.13;;;;;;;;;;5067760;28;20071;-54
2022/04/19 15:16:48;;;;;;;81.22;77.22;;;;;;;;;;5076225;28;20522;-51
2022/04/19 15:19:14;;;;;;;97.10;92.30;;;;;;;;;;5074900;28;20131;-52
2022/04/19 15:21:41;;;;;;;72.22;68.63;;;;;;;;;;5069110;28;20479;-53
2022/04/19 15:24:07;;;;;;;44.85;42.55;;;;;;;;;;5071842;28;20243;-54
2022/04/19 15:26:32;;;;;;;85.97;81.70;;;;;;;;;;5071916;28;20771;-50